Time;durP1;ratioP1;P1;durP2;ratioP2;P2;SDS_P1;SDS_P2;PMS_P1;PMS_P2;Temp;Humidity;BMP_temperature;BMP_pressure;BME280_temperature;BME280_humidity;BME280_pressure;Samples;Min_cycle;Max_cycle;Signal;HPM_P1;HPM_P2
2023/04/14 00:00:30;;;;;;;9.68;4.22;;;4.10;99.90;;;;;;4993778;28;20033;-90
2023/04/14 00:02:55;;;;;;;9.85;3.28;;;4.00;99.90;;;;;;4992207;28;20386;-90
2023/04/14 00:05:21;;;;;;;9.82;4.05;;;4.10;99.90;;;;;;4999847;28;20033;-90
2023/04/14 00:07:46;;;;;;;9.23;4.68;;;4.10;99.90;;;;;;5004419;28;20046;-91
2023/04/14 00:10:12;;;;;;;9.80;3.50;;;4.10;99.90;;;;;;5002506;28;20050;-91
2023/04/14 00:12:37;;;;;;;6.55;3.53;;;4.10;99.90;;;;;;4993391;28;20055;-91
2023/04/14 00:15:03;;;;;;;9.80;3.65;;;4.10;99.90;;;;;;4992737;28;20034;-90
2023/04/14 00:17:30;;;;;;;10.13;3.58;;;4.10;99.90;;;;;;4992871;28;20037;-91
2023/04/14 00:19:55;;;;;;;9.57;4.40;;;4.10;99.90;;;;;;5001233;28;20034;-91
2023/04/14 00:22:21;;;;;;;12.93;4.68;;;4.00;99.90;;;;;;4982203;28;20018;-90
2023/04/14 00:24:46;;;;;;;12.00;3.42;;;4.00;99.90;;;;;;4993375;28;20069;-90
2023/04/14 00:27:12;;;;;;;10.15;4.38;;;4.00;99.90;;;;;;5009242;28;20081;-90
2023/04/14 00:29:38;;;;;;;7.85;4.40;;;4.00;99.90;;;;;;4992156;28;20046;-91
2023/04/14 00:32:07;;;;;;;13.40;4.10;;;4.00;99.90;;;;;;4986998;28;20505;-91
2023/04/14 00:34:32;;;;;;;7.55;4.43;;;3.90;99.90;;;;;;4999684;28;20558;-90
2023/04/14 00:36:58;;;;;;;7.80;3.72;;;3.90;99.90;;;;;;4992610;28;20057;-90
2023/04/14 00:39:24;;;;;;;10.13;4.15;;;3.90;99.90;;;;;;4993235;28;20041;-91
2023/04/14 00:41:49;;;;;;;10.38;4.20;;;3.90;99.90;;;;;;4993191;28;20030;-90
2023/04/14 00:44:15;;;;;;;7.85;4.05;;;3.90;99.90;;;;;;4992458;28;20042;-90
2023/04/14 00:46:41;;;;;;;10.23;4.45;;;3.90;99.90;;;;;;4993281;28;20030;-90
2023/04/14 00:49:07;;;;;;;11.30;4.53;;;3.90;99.90;;;;;;4993467;28;20038;-90
2023/04/14 00:51:33;;;;;;;10.98;4.53;;;3.90;99.90;;;;;;4993197;28;20100;-90
2023/04/14 00:54:01;;;;;;;9.30;4.07;;;3.90;99.90;;;;;;4992714;28;20033;-90
2023/04/14 00:56:28;;;;;;;12.45;4.47;;;3.90;99.90;;;;;;4994368;28;20094;-91
2023/04/14 00:58:54;;;;;;;12.95;4.78;;;3.90;99.90;;;;;;4990351;28;20026;-91
2023/04/14 01:01:21;;;;;;;9.57;3.58;;;4.00;99.90;;;;;;4994112;28;20038;-91
2023/04/14 01:03:47;;;;;;;7.63;4.00;;;4.00;99.90;;;;;;4995167;28;20025;-91
2023/04/14 01:06:12;;;;;;;11.80;4.30;;;3.90;99.90;;;;;;4994431;28;20027;-91
2023/04/14 01:08:38;;;;;;;13.73;4.00;;;3.90;99.90;;;;;;4993473;28;20046;-90
2023/04/14 01:11:23;;;;;;;10.00;3.92;;;3.90;99.90;;;;;;4993657;28;20042;-90
2023/04/14 01:14:06;;;;;;;16.88;4.10;;;3.90;99.90;;;;;;4993446;28;20026;-91
2023/04/14 01:16:35;;;;;;;12.95;4.07;;;3.90;99.90;;;;;;5016806;28;20491;-90
2023/04/14 01:19:19;;;;;;;9.45;3.90;;;3.90;99.90;;;;;;5009932;28;20470;-90
2023/04/14 01:21:50;;;;;;;13.05;4.22;;;3.90;99.90;;;;;;4993384;28;20022;-91
2023/04/14 01:24:24;;;;;;;9.23;4.20;;;3.80;99.90;;;;;;4993611;28;20401;-91
2023/04/14 01:27:15;;;;;;;9.52;3.63;;;3.80;99.90;;;;;;4993633;28;20022;-91
2023/04/14 01:29:52;;;;;;;14.13;3.83;;;3.80;99.90;;;;;;4993953;28;20542;-90
2023/04/14 01:32:22;;;;;;;16.27;3.65;;;3.80;99.90;;;;;;4998888;28;20034;-90
2023/04/14 01:34:55;;;;;;;7.10;3.45;;;3.80;99.90;;;;;;4993787;28;20018;-91
2023/04/14 01:37:29;;;;;;;13.27;4.13;;;3.70;99.90;;;;;;4993412;28;20026;-90
2023/04/14 01:39:59;;;;;;;9.73;3.63;;;3.70;99.90;;;;;;4993346;28;20030;-90
2023/04/14 01:42:30;;;;;;;9.05;3.67;;;3.70;99.90;;;;;;4992750;28;20062;-90
2023/04/14 01:45:01;;;;;;;8.52;3.35;;;3.70;99.90;;;;;;5009706;28;20081;-91
2023/04/14 01:47:28;;;;;;;11.50;3.80;;;3.70;99.90;;;;;;4992315;28;20030;-91
2023/04/14 01:49:55;;;;;;;13.20;3.95;;;3.60;99.90;;;;;;4992794;28;20065;-90
2023/04/14 01:52:21;;;;;;;12.88;4.45;;;3.60;99.90;;;;;;4992010;28;20460;-90
2023/04/14 01:54:51;;;;;;;12.20;3.65;;;3.60;99.90;;;;;;4994144;28;20451;-90
2023/04/14 01:57:21;;;;;;;14.27;4.78;;;3.50;99.90;;;;;;5022761;28;20471;-90
2023/04/14 01:59:50;;;;;;;11.60;3.85;;;3.60;99.90;;;;;;4994670;28;20057;-90
2023/04/14 02:02:18;;;;;;;9.52;4.28;;;3.60;99.90;;;;;;4992711;28;20013;-90
2023/04/14 02:04:44;;;;;;;17.38;4.78;;;3.50;99.90;;;;;;4993274;28;20487;-90
2023/04/14 02:07:11;;;;;;;18.02;4.47;;;3.50;99.90;;;;;;4993684;28;20014;-90
2023/04/14 02:09:39;;;;;;;10.23;3.88;;;3.50;99.90;;;;;;4993067;28;20046;-90
2023/04/14 02:12:06;;;;;;;11.80;4.53;;;3.50;99.90;;;;;;5013704;28;20030;-90
2023/04/14 02:14:35;;;;;;;13.20;4.07;;;3.40;99.90;;;;;;4992009;28;20054;-90
2023/04/14 02:17:01;;;;;;;9.98;3.65;;;3.40;99.90;;;;;;5013352;28;20022;-90
2023/04/14 02:19:28;;;;;;;11.88;4.03;;;3.40;99.90;;;;;;4996489;28;20399;-89
2023/04/14 02:21:55;;;;;;;9.75;4.30;;;3.30;99.90;;;;;;4991950;28;20501;-89
2023/04/14 02:24:22;;;;;;;15.38;4.38;;;3.30;99.90;;;;;;4992252;28;20045;-91
2023/04/14 02:27:13;;;;;;;11.50;4.60;;;3.30;99.90;;;;;;5011661;28;20022;-89
2023/04/14 02:29:44;;;;;;;15.25;4.88;;;3.30;99.90;;;;;;5008417;28;20491;-90
2023/04/14 02:32:14;;;;;;;8.95;4.07;;;3.30;99.90;;;;;;4989448;28;20428;-91
2023/04/14 02:34:58;;;;;;;13.85;5.05;;;3.20;99.90;;;;;;4983445;28;20034;-89
2023/04/14 02:37:29;;;;;;;11.82;4.30;;;3.20;99.90;;;;;;4986181;28;20037;-90
2023/04/14 02:40:00;;;;;;;16.10;5.22;;;3.20;99.90;;;;;;5007696;28;20589;-90
2023/04/14 02:42:29;;;;;;;11.00;4.00;;;3.20;99.90;;;;;;5009646;28;20120;-90
2023/04/14 02:45:05;;;;;;;9.57;3.63;;;3.20;99.90;;;;;;5009413;28;20113;-90
2023/04/14 02:47:37;;;;;;;13.38;4.47;;;3.20;99.90;;;;;;4995844;28;20049;-89
2023/04/14 02:50:06;;;;;;;16.23;3.80;;;3.20;99.90;;;;;;4995937;28;20107;-91
2023/04/14 02:52:33;;;;;;;14.57;3.85;;;3.20;99.90;;;;;;4994776;28;20281;-90
2023/04/14 02:55:00;;;;;;;10.68;3.58;;;3.20;99.90;;;;;;4994397;28;20030;-90
2023/04/14 02:57:26;;;;;;;11.18;3.50;;;3.30;99.90;;;;;;4993865;28;20022;-90
2023/04/14 02:59:53;;;;;;;13.75;4.90;;;3.20;99.90;;;;;;5005357;28;20033;-90
2023/04/14 03:02:20;;;;;;;11.18;4.22;;;3.20;99.90;;;;;;4995870;28;20113;-90
2023/04/14 03:04:46;;;;;;;18.63;3.90;;;3.20;99.90;;;;;;4994449;28;20030;-90
2023/04/14 03:07:15;;;;;;;11.25;3.88;;;3.20;99.90;;;;;;4993872;28;20037;-90
2023/04/14 03:09:41;;;;;;;13.07;3.88;;;3.20;99.90;;;;;;4994839;28;20041;-89
2023/04/14 03:12:11;;;;;;;10.43;3.45;;;3.20;99.90;;;;;;4993917;28;20651;-90
2023/04/14 03:14:37;;;;;;;8.70;3.35;;;3.20;99.90;;;;;;5013604;28;20030;-90
2023/04/14 03:17:04;;;;;;;9.93;3.55;;;3.10;99.90;;;;;;4990983;28;20464;-90
2023/04/14 03:19:31;;;;;;;7.75;3.67;;;3.10;99.90;;;;;;4991704;28;20098;-90
2023/04/14 03:21:58;;;;;;;14.50;4.43;;;3.00;99.90;;;;;;4996621;28;20030;-91
2023/04/14 03:24:29;;;;;;;10.77;3.60;;;3.00;99.90;;;;;;4992870;28;20034;-91
2023/04/14 03:27:00;;;;;;;8.85;3.40;;;3.00;99.90;;;;;;4997904;28;20018;-91
2023/04/14 03:29:31;;;;;;;10.68;3.42;;;3.00;99.90;;;;;;5010750;28;20034;-92
2023/04/14 03:31:59;;;;;;;7.78;3.05;;;2.90;99.90;;;;;;4995074;28;20010;-91
2023/04/14 03:34:30;;;;;;;9.85;3.50;;;2.90;99.90;;;;;;4995010;28;20854;-91
2023/04/14 03:36:57;;;;;;;13.98;3.40;;;2.90;99.90;;;;;;4995455;28;20030;-92
2023/04/14 03:39:26;;;;;;;10.18;3.38;;;2.90;99.90;;;;;;4995804;28;20053;-91
2023/04/14 03:41:55;;;;;;;11.13;3.17;;;2.90;99.90;;;;;;4995821;28;20168;-91
2023/04/14 03:44:22;;;;;;;9.35;2.65;;;2.90;99.90;;;;;;4994252;28;20026;-91
2023/04/14 03:46:48;;;;;;;6.13;2.65;;;2.90;99.90;;;;;;4990736;28;20015;-92
2023/04/14 03:49:15;;;;;;;9.75;3.10;;;2.90;99.90;;;;;;4995819;28;20045;-90
2023/04/14 03:51:44;;;;;;;6.72;2.40;;;2.80;99.90;;;;;;5013801;28;20026;-91
2023/04/14 03:54:10;;;;;;;9.80;2.67;;;2.80;99.90;;;;;;4996771;28;20041;-92
2023/04/14 03:56:39;;;;;;;8.75;2.75;;;2.80;99.90;;;;;;5020949;28;20027;-92
2023/04/14 03:59:10;;;;;;;10.35;2.63;;;2.80;99.90;;;;;;4994413;28;20026;-92
2023/04/14 04:01:36;;;;;;;14.55;3.75;;;2.70;99.90;;;;;;4995728;28;20045;-91
2023/04/14 04:04:05;;;;;;;7.38;2.60;;;2.80;99.90;;;;;;5010905;28;20030;-92
2023/04/14 04:06:36;;;;;;;14.68;3.50;;;2.70;99.90;;;;;;4998367;28;20070;-92
2023/04/14 04:09:03;;;;;;;9.13;2.65;;;2.80;99.90;;;;;;4994566;28;20146;-91
2023/04/14 04:11:30;;;;;;;13.07;2.92;;;2.80;99.90;;;;;;4994063;28;20030;-92
2023/04/14 04:13:57;;;;;;;9.40;2.78;;;2.80;99.90;;;;;;4993986;28;20030;-91
2023/04/14 04:16:25;;;;;;;9.90;2.70;;;2.80;99.90;;;;;;4988870;28;20037;-91
2023/04/14 04:18:52;;;;;;;10.50;3.03;;;2.80;99.90;;;;;;4995096;28;20101;-91
2023/04/14 04:21:19;;;;;;;7.60;2.40;;;2.80;99.90;;;;;;4996737;28;20026;-91
2023/04/14 04:23:51;;;;;;;10.77;2.67;;;2.80;99.90;;;;;;4997048;28;20053;-91
2023/04/14 04:26:18;;;;;;;11.70;3.05;;;2.80;99.90;;;;;;4993771;28;20061;-92
2023/04/14 04:28:44;;;;;;;9.20;2.65;;;2.80;99.90;;;;;;4998444;28;20018;-91
2023/04/14 04:31:10;;;;;;;14.02;2.70;;;2.80;99.90;;;;;;4997749;28;20164;-90
2023/04/14 04:33:36;;;;;;;7.57;2.10;;;2.80;99.90;;;;;;4991902;28;20064;-91
2023/04/14 04:36:04;;;;;;;11.82;3.33;;;2.70;99.90;;;;;;4992540;28;20089;-91
2023/04/14 04:38:29;;;;;;;7.82;2.75;;;2.80;99.90;;;;;;4992629;28;20475;-92
2023/04/14 04:40:55;;;;;;;5.90;2.05;;;2.80;99.90;;;;;;4993347;28;20022;-91
2023/04/14 04:43:21;;;;;;;8.93;2.50;;;2.70;99.90;;;;;;4995867;28;20037;-91
2023/04/14 04:46:14;;;;;;;8.02;2.28;;;2.70;99.90;;;;;;4993200;28;20529;-91
2023/04/14 04:48:39;;;;;;;6.88;3.17;;;2.70;99.90;;;;;;4994147;28;20023;-91
2023/04/14 04:51:05;;;;;;;11.75;2.55;;;2.60;99.90;;;;;;4992603;28;20043;-92
2023/04/14 04:53:30;;;;;;;9.60;2.47;;;2.50;99.90;;;;;;4992395;28;20033;-92
2023/04/14 04:55:56;;;;;;;11.20;2.95;;;2.50;99.90;;;;;;4990973;28;20036;-91
2023/04/14 04:58:21;;;;;;;8.95;2.75;;;2.50;99.90;;;;;;4988996;28;20495;-91
2023/04/14 05:00:47;;;;;;;8.30;2.25;;;2.50;99.90;;;;;;4990860;28;20030;-92
2023/04/14 05:03:12;;;;;;;10.13;2.58;;;2.60;99.90;;;;;;5006234;28;20035;-92
2023/04/14 05:05:38;;;;;;;9.57;3.17;;;2.60;99.90;;;;;;4986769;28;20037;-92
2023/04/14 05:08:04;;;;;;;8.35;3.40;;;2.60;99.90;;;;;;4985987;28;20073;-92
2023/04/14 05:10:29;;;;;;;10.40;3.03;;;2.70;99.90;;;;;;5003357;28;20038;-91
2023/04/14 05:12:55;;;;;;;7.57;2.85;;;2.70;99.90;;;;;;5009510;28;20030;-92
2023/04/14 05:15:20;;;;;;;10.27;2.88;;;2.70;99.90;;;;;;4988348;28;20026;-91
2023/04/14 05:17:46;;;;;;;14.23;3.17;;;2.80;99.90;;;;;;4990998;28;20153;-91
2023/04/14 05:20:12;;;;;;;15.32;3.55;;;2.80;99.90;;;;;;5010760;28;20113;-92
2023/04/14 05:22:37;;;;;;;10.27;3.17;;;2.80;99.90;;;;;;5007623;28;20023;-92
2023/04/14 05:25:03;;;;;;;7.75;3.17;;;2.90;99.90;;;;;;4991735;28;20145;-92
2023/04/14 05:27:29;;;;;;;13.27;3.22;;;2.90;99.90;;;;;;4993169;28;20027;-92
2023/04/14 05:29:55;;;;;;;8.82;3.55;;;2.90;99.90;;;;;;4993834;28;20031;-91
2023/04/14 05:32:20;;;;;;;20.67;3.53;;;3.00;99.90;;;;;;4992380;28;20402;-92
2023/04/14 05:34:46;;;;;;;15.20;3.25;;;3.00;99.90;;;;;;4995421;28;20035;-91
2023/04/14 05:37:12;;;;;;;12.95;3.15;;;3.10;99.90;;;;;;4992289;28;20096;-92
2023/04/14 05:39:37;;;;;;;10.45;4.38;;;3.10;99.90;;;;;;4993003;28;20093;-91
2023/04/14 05:42:03;;;;;;;9.75;3.08;;;3.10;99.90;;;;;;5023891;28;20030;-92
2023/04/14 05:44:28;;;;;;;12.93;3.13;;;3.20;99.90;;;;;;4994742;28;20034;-92
2023/04/14 05:46:54;;;;;;;12.00;4.07;;;3.20;99.90;;;;;;4991708;28;20065;-91
2023/04/14 05:49:20;;;;;;;13.15;3.78;;;3.30;99.90;;;;;;4993007;28;20073;-91
2023/04/14 05:51:45;;;;;;;14.77;4.13;;;3.30;99.90;;;;;;4991460;28;20603;-92
2023/04/14 05:54:11;;;;;;;15.77;3.95;;;3.40;99.90;;;;;;5005269;28;20030;-92
2023/04/14 05:56:37;;;;;;;14.20;4.28;;;3.50;99.90;;;;;;4994160;28;20483;-91
2023/04/14 05:59:02;;;;;;;15.10;4.93;;;3.60;99.90;;;;;;4994592;28;20065;-91
2023/04/14 06:01:28;;;;;;;9.85;3.33;;;3.60;99.90;;;;;;4989514;28;20868;-91
2023/04/14 06:03:53;;;;;;;11.63;4.45;;;3.70;99.90;;;;;;4991186;28;20030;-90
2023/04/14 06:06:19;;;;;;;14.73;3.70;;;3.80;99.90;;;;;;4989218;28;20475;-90
2023/04/14 06:08:44;;;;;;;12.80;4.07;;;3.90;99.90;;;;;;4992202;28;20380;-90
2023/04/14 06:11:10;;;;;;;13.05;4.63;;;4.00;99.90;;;;;;4989879;28;20034;-90
2023/04/14 06:13:36;;;;;;;11.75;4.63;;;4.10;99.90;;;;;;4989906;28;20028;-91
2023/04/14 06:16:01;;;;;;;12.38;4.47;;;4.20;99.90;;;;;;5004884;28;20030;-90
2023/04/14 06:18:27;;;;;;;17.63;4.78;;;4.30;99.90;;;;;;4988315;28;20513;-91
2023/04/14 06:20:53;;;;;;;15.15;4.50;;;4.40;99.90;;;;;;5007112;28;20034;-91
2023/04/14 06:23:20;;;;;;;13.52;4.95;;;4.50;99.90;;;;;;4992129;28;20487;-92
2023/04/14 06:25:46;;;;;;;13.50;4.63;;;4.70;99.90;;;;;;4992154;28;20077;-91
2023/04/14 06:28:11;;;;;;;11.77;3.97;;;4.80;99.90;;;;;;4992055;28;20390;-92
2023/04/14 06:30:37;;;;;;;12.25;5.60;;;4.90;99.90;;;;;;4992567;28;20035;-92
2023/04/14 06:33:03;;;;;;;17.15;5.53;;;5.10;99.90;;;;;;4979945;28;20403;-91
2023/04/14 06:35:31;;;;;;;12.93;5.68;;;5.20;99.90;;;;;;4991964;28;20065;-92
2023/04/14 06:37:57;;;;;;;13.13;4.30;;;5.30;99.90;;;;;;4989163;28;20034;-92
2023/04/14 06:40:22;;;;;;;11.50;4.53;;;5.40;99.90;;;;;;5005542;28;20034;-92
2023/04/14 06:42:48;;;;;;;11.35;4.18;;;5.50;99.90;;;;;;4991164;28;20386;-91
2023/04/14 06:45:13;;;;;;;9.15;3.95;;;5.70;99.90;;;;;;4989551;28;20038;-91
2023/04/14 06:47:39;;;;;;;11.00;4.80;;;5.70;99.90;;;;;;5010244;28;20525;-90
2023/04/14 06:50:05;;;;;;;11.27;4.13;;;5.80;99.90;;;;;;4988259;28;20042;-91
2023/04/14 06:52:31;;;;;;;14.25;4.43;;;6.00;99.90;;;;;;4983982;28;20030;-90
2023/04/14 06:54:56;;;;;;;15.20;4.40;;;6.10;99.90;;;;;;4991290;28;20022;-90
2023/04/14 06:57:22;;;;;;;8.40;3.95;;;6.20;99.90;;;;;;4991524;28;20081;-90
2023/04/14 06:59:47;;;;;;;12.93;4.28;;;6.30;99.90;;;;;;4991286;28;20026;-89
2023/04/14 07:02:13;;;;;;;14.23;4.13;;;6.50;99.90;;;;;;5006604;28;20030;-90
2023/04/14 07:04:38;;;;;;;13.02;4.18;;;6.60;99.90;;;;;;4991176;28;20033;-89
2023/04/14 07:07:04;;;;;;;7.20;3.13;;;6.70;99.90;;;;;;4976459;28;20403;-90
2023/04/14 07:09:30;;;;;;;12.90;3.70;;;6.90;99.90;;;;;;5008393;28;20022;-88
2023/04/14 07:11:56;;;;;;;12.23;3.92;;;7.00;99.90;;;;;;5014797;28;20080;-88
2023/04/14 07:14:22;;;;;;;16.42;4.28;;;7.10;99.90;;;;;;4992028;28;20101;-88
2023/04/14 07:16:48;;;;;;;11.57;3.17;;;7.20;99.90;;;;;;4991617;28;20057;-89
2023/04/14 07:19:14;;;;;;;10.07;3.45;;;7.30;99.90;;;;;;4991224;28;20889;-90
2023/04/14 07:21:40;;;;;;;10.50;3.08;;;7.40;99.90;;;;;;5007693;28;20019;-89
2023/04/14 07:24:05;;;;;;;14.13;3.67;;;7.60;99.90;;;;;;4990512;28;20038;-90
2023/04/14 07:26:31;;;;;;;7.85;2.60;;;7.60;99.90;;;;;;4989849;28;20055;-90
2023/04/14 07:28:56;;;;;;;10.20;3.17;;;7.80;99.90;;;;;;4985865;28;20027;-90
2023/04/14 07:31:22;;;;;;;10.20;2.72;;;7.90;99.90;;;;;;4990849;28;20031;-90
2023/04/14 07:33:48;;;;;;;13.75;2.83;;;8.00;99.90;;;;;;4995433;28;20486;-90
2023/04/14 07:36:13;;;;;;;16.77;2.58;;;8.10;99.90;;;;;;4993805;28;20034;-89
2023/04/14 07:38:39;;;;;;;10.48;3.03;;;8.30;99.90;;;;;;4995007;28;20027;-90
2023/04/14 07:41:05;;;;;;;7.03;2.22;;;8.40;99.90;;;;;;4992996;28;20037;-89
2023/04/14 07:43:34;;;;;;;8.73;2.13;;;8.60;99.90;;;;;;4986579;28;20049;-89
2023/04/14 07:46:03;;;;;;;10.23;2.30;;;8.70;99.90;;;;;;4997462;28;20033;-90
2023/04/14 07:48:33;;;;;;;10.40;2.00;;;8.80;99.90;;;;;;4995517;28;20041;-89
2023/04/14 07:50:58;;;;;;;12.52;2.58;;;8.90;99.90;;;;;;4996521;28;20069;-89
2023/04/14 07:53:25;;;;;;;7.15;1.73;;;9.00;99.90;;;;;;4996540;28;20069;-89
2023/04/14 07:55:50;;;;;;;7.47;1.98;;;9.10;99.90;;;;;;5013688;28;20378;-89
2023/04/14 07:58:16;;;;;;;7.55;1.73;;;9.30;99.90;;;;;;5010356;28;20108;-89
2023/04/14 08:00:42;;;;;;;6.72;2.30;;;9.40;99.90;;;;;;4996428;28;20522;-89
2023/04/14 08:03:08;;;;;;;6.80;2.17;;;9.50;99.90;;;;;;4996354;28;20126;-89
2023/04/14 08:05:34;;;;;;;8.00;2.22;;;9.70;99.90;;;;;;4996121;28;20034;-89
2023/04/14 08:07:59;;;;;;;10.18;2.08;;;9.80;99.90;;;;;;4995595;28;20048;-89
2023/04/14 08:10:25;;;;;;;9.25;1.33;;;9.90;99.90;;;;;;4995518;28;20042;-89
2023/04/14 08:12:51;;;;;;;9.75;1.42;;;10.00;99.90;;;;;;4996295;28;20035;-89
2023/04/14 08:15:17;;;;;;;13.07;1.60;;;10.10;99.90;;;;;;4996473;28;20483;-89
2023/04/14 08:17:43;;;;;;;10.27;1.58;;;10.20;99.90;;;;;;4995127;28;20095;-88
2023/04/14 08:20:09;;;;;;;11.77;1.10;;;10.20;99.90;;;;;;4995923;28;21794;-88
2023/04/14 08:22:34;;;;;;;10.90;1.33;;;10.40;99.90;;;;;;5012381;28;20114;-89
2023/04/14 08:25:00;;;;;;;9.98;1.42;;;10.50;99.90;;;;;;4995664;28;20050;-89
2023/04/14 08:27:25;;;;;;;6.95;1.30;;;10.60;99.90;;;;;;4996218;28;20109;-87
2023/04/14 08:29:51;;;;;;;9.10;1.38;;;10.70;99.90;;;;;;4996074;28;20061;-88
2023/04/14 08:32:17;;;;;;;11.00;1.55;;;10.80;99.90;;;;;;4995883;28;20022;-89
2023/04/14 08:34:43;;;;;;;8.13;1.25;;;10.90;99.90;;;;;;4993185;28;20030;-89
2023/04/14 08:37:08;;;;;;;7.30;0.80;;;11.00;99.90;;;;;;4993580;28;20023;-89
2023/04/14 08:39:34;;;;;;;11.00;1.40;;;11.10;99.90;;;;;;4993633;28;20041;-89
2023/04/14 08:42:00;;;;;;;7.03;1.30;;;11.20;99.90;;;;;;4996154;28;20041;-89
2023/04/14 08:44:25;;;;;;;10.05;1.08;;;11.20;99.90;;;;;;4992980;28;20057;-88
2023/04/14 08:46:52;;;;;;;7.78;1.30;;;11.30;99.90;;;;;;4995887;28;20026;-88
2023/04/14 08:49:38;;;;;;;10.27;1.50;;;11.40;99.90;;;;;;4993021;28;20038;-89
2023/04/14 08:52:05;;;;;;;7.60;1.27;;;11.50;99.90;;;;;;4997306;28;20553;-88
2023/04/14 08:54:31;;;;;;;5.38;1.20;;;11.60;99.90;;;;;;4994061;28;20084;-88
2023/04/14 08:56:58;;;;;;;11.95;0.93;;;11.70;99.90;;;;;;4996480;28;20040;-88
2023/04/14 08:59:25;;;;;;;5.10;1.08;;;11.80;99.90;;;;;;4994337;28;20117;-88
2023/04/14 09:01:51;;;;;;;7.90;1.45;;;11.90;99.90;;;;;;5011203;28;20451;-89
2023/04/14 09:04:19;;;;;;;4.97;0.80;;;11.90;99.90;;;;;;4994519;28;20030;-88
2023/04/14 09:06:44;;;;;;;8.15;1.38;;;12.00;99.90;;;;;;4990277;28;20030;-88
2023/04/14 09:09:10;;;;;;;8.25;1.17;;;11.90;99.90;;;;;;4988764;28;20077;-87
2023/04/14 09:11:36;;;;;;;8.07;1.25;;;12.00;99.90;;;;;;4997510;28;20041;-85
2023/04/14 09:14:03;;;;;;;8.32;1.15;;;12.00;99.90;;;;;;4996868;28;20022;-88
2023/04/14 09:16:30;;;;;;;6.55;0.75;;;12.20;99.90;;;;;;4993072;28;20069;-89
2023/04/14 09:18:56;;;;;;;6.90;1.20;;;12.30;99.90;;;;;;4991291;28;20057;-89
2023/04/14 09:21:23;;;;;;;7.65;1.25;;;12.40;99.90;;;;;;4993002;28;20038;-89
2023/04/14 09:23:48;;;;;;;5.78;1.02;;;12.40;99.90;;;;;;4992123;28;20034;-88
2023/04/14 09:26:15;;;;;;;4.43;1.33;;;12.50;99.90;;;;;;4990048;28;20026;-89
2023/04/14 09:28:41;;;;;;;8.75;1.13;;;12.60;99.90;;;;;;4990532;28;20092;-89
2023/04/14 09:31:07;;;;;;;4.57;1.05;;;12.60;99.90;;;;;;4989292;28;20034;-88
2023/04/14 09:33:38;;;;;;;11.15;1.40;;;12.80;99.90;;;;;;4991386;28;20022;-88
2023/04/14 09:36:03;;;;;;;7.00;1.48;;;12.70;99.90;;;;;;4988601;28;20126;-88
2023/04/14 09:38:37;;;;;;;5.72;1.35;;;12.60;99.90;;;;;;5010468;28;20124;-87
2023/04/14 09:41:05;;;;;;;6.57;1.35;;;12.60;99.90;;;;;;4994269;28;20030;-87
2023/04/14 09:43:31;;;;;;;4.95;1.05;;;12.60;99.90;;;;;;4993623;28;20121;-87
2023/04/14 09:46:03;;;;;;;6.35;1.65;;;12.70;99.90;;;;;;4994832;28;20033;-88
2023/04/14 09:48:28;;;;;;;6.38;1.20;;;12.90;99.90;;;;;;5012000;28;20371;-88
2023/04/14 09:51:06;;;;;;;4.18;1.10;;;13.00;99.90;;;;;;4995765;28;20491;-87
2023/04/14 09:53:33;;;;;;;8.15;0.80;;;13.10;99.90;;;;;;5008784;28;20553;-88
2023/04/14 09:56:01;;;;;;;4.03;0.60;;;13.20;99.90;;;;;;4991855;28;20073;-87
2023/04/14 09:58:33;;;;;;;5.88;0.70;;;13.30;99.90;;;;;;4992884;28;20030;-86
2023/04/14 10:00:58;;;;;;;3.53;0.60;;;13.30;99.90;;;;;;4990400;28;20105;-88
2023/04/14 10:03:47;;;;;;;3.80;0.68;;;13.20;99.90;;;;;;5007256;28;20129;-87
2023/04/14 10:06:16;;;;;;;4.70;1.15;;;13.40;99.90;;;;;;4995546;28;20489;-89
2023/04/14 10:08:45;;;;;;;5.32;0.40;;;13.40;99.90;;;;;;4997068;28;20096;-88
2023/04/14 10:11:28;;;;;;;4.07;0.60;;;13.50;99.90;;;;;;4992589;28;20509;-87
2023/04/14 10:14:01;;;;;;;;;;;13.60;99.90;;;;;;4992428;28;20034;-88
2023/04/14 10:16:26;;;;;;;6.20;0.50;;;13.60;99.90;;;;;;5002641;28;19910;-87
2023/04/14 10:18:53;;;;;;;3.80;0.38;;;13.70;99.90;;;;;;5010562;28;20040;-89
2023/04/14 10:21:21;;;;;;;7.63;0.68;;;13.80;99.90;;;;;;4990827;28;20022;-88
2023/04/14 10:23:47;;;;;;;3.83;0.45;;;13.90;99.50;;;;;;5007807;28;20066;-88
2023/04/14 10:26:14;;;;;;;6.50;0.95;;;13.90;98.90;;;;;;5016322;28;20038;-88
2023/04/14 10:28:47;;;;;;;5.28;0.60;;;14.00;98.20;;;;;;4987452;28;20038;-88
2023/04/14 10:31:23;;;;;;;4.15;0.40;;;14.00;97.50;;;;;;5010118;28;20038;-87
2023/04/14 10:33:49;;;;;;;2.75;0.40;;;14.10;97.70;;;;;;5008885;28;20034;-88
2023/04/14 10:36:31;;;;;;;4.40;0.40;;;14.10;96.60;;;;;;4992649;28;20506;-88
2023/04/14 10:39:01;;;;;;;4.80;0.60;;;14.20;96.90;;;;;;4994259;28;20026;-87
2023/04/14 10:41:47;;;;;;;2.47;0.63;;;14.20;96.60;;;;;;4993412;28;20031;-88
2023/04/14 10:44:30;;;;;;;4.85;0.40;;;14.20;95.90;;;;;;4993839;28;20098;-88
2023/04/14 10:47:00;;;;;;;3.47;0.50;;;14.30;96.10;;;;;;4996957;28;20030;-85
2023/04/14 10:49:34;;;;;;;6.57;0.77;;;14.40;95.60;;;;;;4988575;28;20577;-87
2023/04/14 10:52:02;;;;;;;3.85;0.40;;;14.60;95.20;;;;;;4991086;28;20022;-88
2023/04/14 10:55:07;;;;;;;3.13;0.40;;;14.50;95.30;;;;;;4990639;28;20042;-87
2023/04/14 10:57:40;;;;;;;2.60;0.30;;;14.60;94.30;;;;;;4993415;28;20062;-86
2023/04/14 11:00:27;;;;;;;2.35;0.70;;;14.60;93.50;;;;;;4995049;28;20034;-88
2023/04/14 11:03:11;;;;;;;4.22;0.47;;;14.60;93.20;;;;;;5013784;28;20034;-86
2023/04/14 11:05:47;;;;;;;5.43;0.40;;;14.70;92.70;;;;;;4992489;28;20034;-87
2023/04/14 11:08:32;;;;;;;5.97;0.52;;;14.70;92.40;;;;;;5011939;28;20407;-87
2023/04/14 11:11:03;;;;;;;5.95;0.50;;;14.80;92.40;;;;;;5002823;28;20093;-88
2023/04/14 11:13:29;;;;;;;5.57;1.02;;;14.80;91.40;;;;;;4993427;28;20331;-87
2023/04/14 11:16:05;;;;;;;3.58;0.40;;;14.80;91.40;;;;;;4999952;28;20026;-89
2023/04/14 11:18:42;;;;;;;5.18;0.95;;;14.70;91.00;;;;;;5014288;28;20383;-88
2023/04/14 11:21:14;;;;;;;5.70;0.30;;;14.60;90.70;;;;;;5008348;28;20053;-89
2023/04/14 11:23:41;;;;;;;3.85;0.47;;;14.50;90.90;;;;;;4998155;28;20105;-88
2023/04/14 11:26:12;;;;;;;3.15;0.68;;;14.60;90.80;;;;;;4995439;28;20486;-87
2023/04/14 11:28:40;;;;;;;2.20;0.40;;;14.70;90.80;;;;;;5006892;28;20123;-87
2023/04/14 11:31:09;;;;;;;7.10;0.40;;;14.70;90.10;;;;;;5012644;28;20038;-86
2023/04/14 11:33:37;;;;;;;3.95;0.40;;;14.80;89.70;;;;;;4997432;28;20038;-87
2023/04/14 11:36:05;;;;;;;4.97;0.63;;;14.80;87.30;;;;;;4995571;28;20030;-86
2023/04/14 11:38:31;;;;;;;4.75;0.55;;;14.90;88.40;;;;;;4991494;28;20049;-87
2023/04/14 11:40:57;;;;;;;3.03;0.30;;;15.00;87.80;;;;;;5013280;28;20027;-87
2023/04/14 11:43:23;;;;;;;3.78;0.50;;;15.00;87.70;;;;;;4997148;28;20033;-87
2023/04/14 11:45:50;;;;;;;2.17;0.30;;;15.00;88.00;;;;;;4997698;28;20471;-87
2023/04/14 11:48:18;;;;;;;4.57;0.38;;;15.10;87.00;;;;;;4996489;28;20128;-87
2023/04/14 11:50:44;;;;;;;3.13;0.40;;;15.00;87.00;;;;;;4996601;28;20039;-87
2023/04/14 11:53:16;;;;;;;4.55;0.40;;;15.00;86.70;;;;;;4996475;28;20033;-87
2023/04/14 11:55:43;;;;;;;3.78;0.85;;;15.10;86.00;;;;;;4996457;28;20026;-87
2023/04/14 11:58:11;;;;;;;3.00;0.30;;;15.30;85.10;;;;;;4996095;28;20097;-87
2023/04/14 12:00:36;;;;;;;4.63;0.30;;;15.40;82.20;;;;;;5013836;28;20022;-87
2023/04/14 12:03:02;;;;;;;5.32;0.40;;;15.50;82.00;;;;;;5013216;28;20426;-87
2023/04/14 12:05:30;;;;;;;5.70;0.40;;;15.70;82.40;;;;;;4997257;28;20371;-88
2023/04/14 12:08:05;;;;;;;3.50;0.40;;;15.80;81.10;;;;;;4996117;28;20046;-87
2023/04/14 12:10:30;;;;;;;6.35;0.40;;;15.80;79.70;;;;;;4996072;28;20137;-87
2023/04/14 12:13:03;;;;;;;5.90;0.50;;;15.60;79.60;;;;;;4995458;28;20042;-88
2023/04/14 12:15:37;;;;;;;4.13;0.40;;;15.40;79.10;;;;;;4995745;28;20454;-87
2023/04/14 12:18:06;;;;;;;5.28;0.40;;;15.10;79.90;;;;;;4996270;28;20030;-87
2023/04/14 12:20:44;;;;;;;3.08;0.40;;;15.10;80.50;;;;;;4996585;28;20026;-87
2023/04/14 12:23:10;;;;;;;3.53;0.70;;;15.30;80.30;;;;;;5000658;28;20026;-87
2023/04/14 12:25:35;;;;;;;4.28;0.50;;;15.50;79.70;;;;;;5012007;28;20126;-87
2023/04/14 12:28:04;;;;;;;1.83;0.30;;;15.70;80.20;;;;;;4995004;28;20037;-86
2023/04/14 12:30:30;;;;;;;3.03;0.30;;;15.70;79.00;;;;;;5012363;28;20034;-87
2023/04/14 12:32:56;;;;;;;2.30;0.40;;;15.80;78.90;;;;;;4997010;28;20026;-87
2023/04/14 12:35:32;;;;;;;2.80;0.30;;;15.90;77.90;;;;;;5012247;28;20029;-87
2023/04/14 12:37:58;;;;;;;2.63;0.40;;;16.00;78.50;;;;;;4996206;28;20022;-87
2023/04/14 12:40:37;;;;;;;2.08;0.30;;;16.10;78.00;;;;;;4996568;28;20037;-87
2023/04/14 12:43:03;;;;;;;3.90;0.35;;;16.20;77.40;;;;;;5000566;28;20022;-86
2023/04/14 12:45:42;;;;;;;3.20;0.43;;;16.30;76.10;;;;;;5006232;28;20513;-87
2023/04/14 12:48:08;;;;;;;4.07;0.40;;;16.40;74.60;;;;;;4996424;28;20034;-87
2023/04/14 12:50:34;;;;;;;3.40;0.40;;;16.40;74.10;;;;;;4996588;28;20039;-87
2023/04/14 12:53:00;;;;;;;2.60;0.40;;;16.30;74.30;;;;;;4998483;28;20026;-87